Time;durP1;ratioP1;P1;durP2;ratioP2;P2;SDS_P1;SDS_P2;PMS_P1;PMS_P2;Temp;Humidity;BMP_temperature;BMP_pressure;BME280_temperature;BME280_humidity;BME280_pressure;Samples;Min_cycle;Max_cycle;Signal;HPM_P1;HPM_P2
2022/06/30 00:01:44;;;;;;;0.57;0.57;;;;;;;21.92;100.00;95342.22;5135033;27;20463;-57
2022/06/30 00:04:14;;;;;;;0.43;0.40;;;;;;;21.76;100.00;95290.84;5135038;27;20423;-57
2022/06/30 00:06:42;;;;;;;0.50;0.40;;;;;;;22.16;100.00;95334.09;5134484;27;20509;-56
2022/06/30 00:09:11;;;;;;;2.27;2.10;;;;;;;22.21;100.00;95341.94;5134660;27;20414;-56
2022/06/30 00:11:40;;;;;;;0.50;0.30;;;;;;;21.98;100.00;95298.50;5134668;27;20602;-56
2022/06/30 00:14:09;;;;;;;1.90;0.60;;;;;;;22.21;100.00;95343.84;5133616;27;20512;-56
2022/06/30 00:16:37;;;;;;;0.60;0.60;;;;;;;22.29;100.00;95341.00;5134747;27;20431;-56
2022/06/30 00:19:06;;;;;;;0.50;0.30;;;;;;;22.26;100.00;95330.91;5134722;27;20419;-57
2022/06/30 00:21:35;;;;;;;0.40;0.30;;;;;;;22.31;100.00;95343.38;5134887;27;20455;-57
2022/06/30 00:24:05;;;;;;;0.50;0.40;;;;;;;22.32;100.00;95344.94;5135024;27;20857;-57
2022/06/30 00:26:33;;;;;;;1.03;0.60;;;;;;;22.32;100.00;95337.63;5134501;27;20462;-57
2022/06/30 00:29:01;;;;;;;0.60;0.60;;;;;;;22.29;100.00;95342.94;5134574;27;20446;-56
2022/06/30 00:31:30;;;;;;;0.80;0.73;;;;;;;22.23;100.00;95347.78;5134384;27;20561;-56
2022/06/30 00:33:58;;;;;;;0.40;0.30;;;;;;;22.14;100.00;95341.72;5134514;27;20425;-57
2022/06/30 00:36:26;;;;;;;0.60;0.40;;;;;;;21.79;100.00;95340.63;5134745;27;20506;-57
2022/06/30 00:38:56;;;;;;;0.50;0.40;;;;;;;21.80;100.00;95351.09;5134434;27;20433;-56
2022/06/30 00:41:25;;;;;;;0.40;0.27;;;;;;;21.85;100.00;95336.59;5134607;27;20498;-57
2022/06/30 00:43:53;;;;;;;0.40;0.30;;;;;;;21.92;100.00;95328.72;5134309;27;20517;-57
2022/06/30 00:46:22;;;;;;;0.50;0.40;;;;;;;21.91;100.00;95327.16;5134187;27;20938;-57
2022/06/30 00:48:50;;;;;;;0.43;0.30;;;;;;;21.21;100.00;95339.19;5134405;27;20505;-56
2022/06/30 00:51:24;;;;;;;0.60;0.40;;;;;;;20.97;100.00;95333.75;5134320;27;20470;-56
2022/06/30 00:53:56;;;;;;;1.10;0.50;;;;;;;20.67;100.00;95220.75;5134326;27;20777;-56
2022/06/30 00:56:27;;;;;;;0.50;0.40;;;;;;;21.60;100.00;95316.97;5133970;27;20458;-56
2022/06/30 00:59:01;;;;;;;0.50;0.30;;;;;;;21.44;100.00;95281.00;5133856;27;20458;-57
2022/06/30 01:01:31;;;;;;;0.63;0.63;;;;;;;21.46;100.00;95319.19;5133924;27;20455;-56
2022/06/30 01:04:00;;;;;;;0.40;0.20;;;;;;;21.61;100.00;95325.81;5133757;27;20426;-56
2022/06/30 01:06:30;;;;;;;0.40;0.20;;;;;;;21.30;100.00;95326.41;5134115;27;20802;-56
2022/06/30 01:08:59;;;;;;;0.40;0.20;;;;;;;21.08;100.00;95329.50;5133617;27;20541;-56
2022/06/30 01:14:11;;;;;;;0.70;0.60;;;;;;;20.39;100.00;95332.09;5099444;27;20516;-56
2022/06/30 01:16:40;;;;;;;1.60;1.00;;;;;;;19.62;100.00;95166.72;5133650;27;20457;-56
2022/06/30 01:19:09;;;;;;;0.50;0.30;;;;;;;20.61;100.00;95259.03;5133634;27;20984;-56
2022/06/30 01:21:39;;;;;;;1.03;0.93;;;;;;;20.94;100.00;95334.41;5133562;27;20888;-56
2022/06/30 01:24:07;;;;;;;0.40;0.30;;;;;;;21.20;100.00;95327.59;5133408;27;20473;-56
2022/06/30 01:26:36;;;;;;;0.50;0.30;;;;;;;21.32;100.00;95333.03;5133730;27;20414;-56
2022/06/30 01:29:06;;;;;;;0.57;0.43;;;;;;;21.31;100.00;95326.06;5133285;27;20932;-56
2022/06/30 01:31:35;;;;;;;1.07;0.60;;;;;;;21.34;100.00;95332.69;5133285;27;21028;-56
2022/06/30 01:34:03;;;;;;;0.67;0.50;;;;;;;21.33;100.00;95325.69;5132740;27;20446;-56
2022/06/30 01:36:31;;;;;;;0.60;0.50;;;;;;;21.23;100.00;95318.06;5133267;27;20967;-56
2022/06/30 01:39:01;;;;;;;0.50;0.40;;;;;;;20.81;100.00;95333.59;5133463;27;20454;-57
2022/06/30 01:41:29;;;;;;;0.60;0.57;;;;;;;20.80;100.00;95330.09;5132896;27;20462;-57
2022/06/30 01:43:58;;;;;;;0.40;0.37;;;;;;;21.06;100.00;95319.06;5132851;27;20931;-57
2022/06/30 01:46:26;;;;;;;0.50;0.40;;;;;;;21.17;100.00;95327.50;5133128;27;20514;-56
2022/06/30 01:48:55;;;;;;;0.40;0.30;;;;;;;21.17;100.00;95320.22;5133047;27;20426;-56
2022/06/30 01:51:23;;;;;;;0.60;0.50;;;;;;;21.22;100.00;95321.91;5132922;27;20847;-56
2022/06/30 01:53:51;;;;;;;0.40;0.30;;;;;;;21.24;100.00;95316.94;5133194;27;20461;-56
2022/06/30 01:56:21;;;;;;;0.50;0.30;;;;;;;21.21;100.00;95320.31;5132974;27;20513;-56
2022/06/30 01:58:54;;;;;;;0.47;0.30;;;;;;;21.21;100.00;95317.63;5132533;27;20521;-56
2022/06/30 02:01:22;;;;;;;0.50;0.40;;;;;;;20.70;100.00;95260.50;5133204;27;20459;-56
2022/06/30 02:03:51;;;;;;;0.40;0.30;;;;;;;21.18;100.00;95320.97;5132814;27;20431;-56
2022/06/30 02:06:19;;;;;;;0.40;0.30;;;;;;;21.21;100.00;95317.63;5133116;28;20418;-56
2022/06/30 02:08:47;;;;;;;0.50;0.40;;;;;;;21.21;100.00;95323.81;5132721;28;20479;-56
2022/06/30 02:11:16;;;;;;;0.57;0.40;;;;;;;21.21;100.00;95321.09;5133117;28;20493;-56
2022/06/30 02:13:46;;;;;;;0.40;0.20;;;;;;;21.19;100.00;95328.75;5132518;28;20565;-56
2022/06/30 02:16:14;;;;;;;0.60;0.40;;;;;;;21.14;100.00;95310.09;5132886;28;20483;-57
2022/06/30 02:18:42;;;;;;;0.73;0.40;;;;;;;21.17;100.00;95317.53;5132836;28;20423;-56
2022/06/30 02:21:11;;;;;;;0.60;0.30;;;;;;;21.21;100.00;95320.31;5132557;28;20414;-56
2022/06/30 02:23:39;;;;;;;0.73;0.73;;;;;;;21.20;100.00;95324.91;5132667;28;20941;-56
2022/06/30 02:26:07;;;;;;;0.40;0.30;;;;;;;21.06;100.00;95319.06;5133163;28;20479;-56
2022/06/30 02:28:36;;;;;;;0.63;0.43;;;;;;;21.02;100.00;95320.84;5132895;28;20789;-56
2022/06/30 02:31:05;;;;;;;0.40;0.30;;;;;;;21.05;100.00;95320.16;5132512;28;20966;-56
2022/06/30 02:33:34;;;;;;;0.70;0.40;;;;;;;21.09;100.00;95321.09;5132991;28;20419;-56
2022/06/30 02:36:02;;;;;;;1.37;0.30;;;;;;;21.07;100.00;95317.97;5132595;28;20454;-56
2022/06/30 02:38:30;;;;;;;0.90;0.40;;;;;;;21.09;100.00;95310.31;5132615;28;20502;-56
2022/06/30 02:40:59;;;;;;;0.50;0.30;;;;;;;21.06;100.00;95316.38;5132917;28;20414;-56
2022/06/30 02:43:27;;;;;;;0.50;0.50;;;;;;;21.03;100.00;95310.81;5132614;28;20502;-56
2022/06/30 02:45:55;;;;;;;0.87;0.53;;;;;;;21.00;100.00;95312.28;5133669;27;20415;-56
2022/06/30 02:48:25;;;;;;;0.93;0.50;;;;;;;20.95;100.00;95317.88;5136394;27;20804;-56
2022/06/30 02:50:53;;;;;;;0.50;0.50;;;;;;;20.99;100.00;95323.41;5136403;27;20929;-56
2022/06/30 02:53:23;;;;;;;0.50;0.40;;;;;;;20.87;100.00;95324.94;5136265;27;20505;-56
2022/06/30 02:55:51;;;;;;;0.40;0.30;;;;;;;20.56;100.00;95331.94;5136297;27;20463;-56
2022/06/30 02:58:20;;;;;;;1.10;1.00;;;;;;;20.35;100.00;95320.41;5136274;27;20510;-56
2022/06/30 03:00:48;;;;;;;1.73;1.63;;;;;;;20.10;100.00;95339.09;5136196;27;20433;-56
2022/06/30 03:03:16;;;;;;;0.90;0.60;;;;;;;20.40;100.00;95339.03;5136406;27;20453;-56
2022/06/30 03:05:46;;;;;;;0.40;0.30;;;;;;;20.67;100.00;95338.50;5136330;27;20422;-56
2022/06/30 03:08:15;;;;;;;0.50;0.40;;;;;;;20.73;100.00;95342.53;5135921;27;20475;-56
2022/06/30 03:10:43;;;;;;;0.43;0.30;;;;;;;20.27;100.00;95355.16;5135968;27;20532;-56
2022/06/30 03:13:11;;;;;;;1.57;0.90;;;;;;;19.85;100.00;95350.06;5135735;27;20580;-56
2022/06/30 03:15:40;;;;;;;0.50;0.30;;;;;;;19.88;100.00;95320.59;5136021;27;20525;-57
2022/06/30 03:18:08;;;;;;;0.60;0.30;;;;;;;19.90;100.00;95344.47;5135888;27;20457;-56
2022/06/30 03:20:41;;;;;;;0.50;0.30;;;;;;;20.06;100.00;95330.09;5136069;27;20810;-56
2022/06/30 03:23:11;;;;;;;1.10;0.50;;;;;;;20.35;100.00;95347.31;5135761;27;20423;-56
2022/06/30 03:25:40;;;;;;;0.90;0.30;;;;;;;20.55;100.00;95344.59;5136090;27;20446;-56
2022/06/30 03:28:08;;;;;;;0.50;0.30;;;;;;;20.49;100.00;95353.22;5135583;27;20958;-56
2022/06/30 03:30:41;;;;;;;0.70;0.60;;;;;;;20.57;100.00;95358.53;5135840;27;20451;-56
2022/06/30 03:33:10;;;;;;;0.70;0.53;;;;;;;20.64;100.00;95349.94;5135466;27;20474;-55
2022/06/30 03:35:38;;;;;;;0.67;0.63;;;;;;;20.65;100.00;95341.50;5135663;27;20458;-56
2022/06/30 03:38:06;;;;;;;0.83;0.60;;;;;;;20.77;100.00;95346.16;5135461;27;20899;-56
2022/06/30 03:40:36;;;;;;;0.40;0.20;;;;;;;20.71;100.00;95345.56;5135659;27;20438;-55
2022/06/30 03:43:05;;;;;;;0.50;0.30;;;;;;;20.80;100.00;95350.84;5135325;27;20462;-56
2022/06/30 03:45:33;;;;;;;0.50;0.40;;;;;;;20.85;100.00;95347.94;5135253;27;20466;-56
2022/06/30 03:48:02;;;;;;;0.50;0.40;;;;;;;20.78;100.00;95351.19;5135428;27;20441;-55
2022/06/30 03:50:31;;;;;;;0.60;0.53;;;;;;;20.85;100.00;95354.13;5135491;27;20453;-55
2022/06/30 03:53:00;;;;;;;0.40;0.30;;;;;;;20.78;100.00;95326.16;5135123;27;20458;-55
2022/06/30 03:55:33;;;;;;;0.50;0.50;;;;;;;20.97;100.00;95345.31;5135396;27;20505;-55
2022/06/30 03:58:03;;;;;;;0.40;0.30;;;;;;;21.07;100.00;95350.31;5134990;27;20454;-55
2022/06/30 04:00:31;;;;;;;0.40;0.20;;;;;;;21.04;100.00;95345.53;5134817;27;20526;-55
2022/06/30 04:03:00;;;;;;;1.53;0.37;;;;;;;21.18;100.00;95345.22;5134889;27;20451;-56
2022/06/30 04:05:28;;;;;;;1.13;0.70;;;;;;;21.22;100.00;95340.75;5134977;27;20505;-57
2022/06/30 04:07:57;;;;;;;0.90;0.90;;;;;;;21.36;100.00;95341.22;5135344;27;20482;-56
2022/06/30 04:10:25;;;;;;;0.40;0.30;;;;;;;21.42;100.00;95346.06;5135262;27;20616;-55
2022/06/30 04:12:54;;;;;;;0.50;0.50;;;;;;;21.23;100.00;95342.31;5134729;27;20509;-56
2022/06/30 04:15:24;;;;;;;1.20;1.13;;;;;;;19.91;100.00;95254.59;5134306;27;20999;-55
2022/06/30 04:17:52;;;;;;;3.47;0.50;;;;;;;19.99;100.00;95346.00;5134553;27;20526;-56
2022/06/30 04:20:20;;;;;;;0.60;0.60;;;;;;;19.92;100.00;95347.63;5134933;27;20847;-56
2022/06/30 04:22:50;;;;;;;2.50;1.03;;;;;;;19.74;100.00;95351.53;5134546;27;20466;-57
2022/06/30 04:25:20;;;;;;;1.07;1.00;;;;;;;19.73;100.00;95356.16;5134517;27;20970;-56
2022/06/30 04:27:49;;;;;;;10.80;0.50;;;;;;;19.23;100.00;95290.75;5134501;27;20458;-57
2022/06/30 04:32:37;;;;;;;0.83;0.83;;;;;;;19.78;100.00;95363.22;5133735;27;20510;-56
2022/06/30 04:33:08;;;;;;;0.70;0.70;;;;;;;19.03;100.00;95255.44;5134404;27;20496;-56
2022/06/30 04:35:37;;;;;;;1.27;1.17;;;;;;;19.70;100.00;95353.31;5134299;27;20483;-57
2022/06/30 04:38:06;;;;;;;0.70;0.70;;;;;;;19.93;100.00;95355.38;5133888;27;20434;-57
2022/06/30 04:43:22;;;;;;;0.63;0.57;;;;;;;20.60;100.00;95359.75;5133840;27;20442;-60
2022/06/30 04:45:50;;;;;;;0.87;0.87;;;;;;;20.95;100.00;95360.22;5134496;27;20454;-61
2022/06/30 04:48:20;;;;;;;1.40;0.93;;;;;;;21.19;100.00;95361.09;5134613;27;20475;-60
2022/06/30 04:50:53;;;;;;;0.43;0.37;;;;;;;21.03;100.00;95368.22;5135059;27;20499;-60
2022/06/30 04:53:22;;;;;;;1.03;0.73;;;;;;;20.67;100.00;95363.50;5134482;27;20466;-60
2022/06/30 04:55:50;;;;;;;0.50;0.30;;;;;;;21.15;100.00;95360.16;5134068;27;20994;-60
2022/06/30 04:58:18;;;;;;;1.00;1.00;;;;;;;21.57;100.00;95354.59;5133814;27;20466;-61
2022/06/30 05:00:47;;;;;;;0.83;0.50;;;;;;;21.71;100.00;95355.81;5134340;27;20523;-60
2022/06/30 05:03:15;;;;;;;0.90;0.40;;;;;;;21.95;100.00;95352.34;5133791;27;20460;-59
2022/06/30 05:05:45;;;;;;;0.40;0.30;;;;;;;22.16;100.00;95352.19;5134106;27;20517;-59
2022/06/30 05:08:15;;;;;;;0.40;0.30;;;;;;;22.25;100.00;95350.94;5133640;27;20515;-60
2022/06/30 05:10:43;;;;;;;0.40;0.30;;;;;;;21.97;100.00;95356.28;5133863;27;20418;-59
2022/06/30 05:13:12;;;;;;;0.60;0.60;;;;;;;22.17;100.00;95354.53;5133533;27;20522;-61
2022/06/30 05:15:47;;;;;;;0.60;0.47;;;;;;;22.33;100.00;95349.22;5133977;27;20545;-60
2022/06/30 05:18:16;;;;;;;0.80;0.80;;;;;;;22.55;100.00;95344.06;5134751;27;20801;-61
2022/06/30 05:20:46;;;;;;;0.40;0.30;;;;;;;22.73;100.00;95341.88;5134890;27;20431;-60
2022/06/30 05:23:15;;;;;;;1.03;1.03;;;;;;;22.96;100.00;95342.09;5135122;27;20487;-61
2022/06/30 05:28:28;;;;;;;0.77;0.70;;;;;;;22.98;100.00;95348.72;5133581;27;20763;-61
2022/06/30 05:30:57;;;;;;;0.60;0.50;;;;;;;22.62;100.00;95346.19;5133344;27;20462;-62
2022/06/30 05:33:26;;;;;;;0.70;0.70;;;;;;;22.45;100.00;95344.56;5133639;27;20539;-61
2022/06/30 05:35:56;;;;;;;0.77;0.77;;;;;;;22.71;100.00;95344.16;5133517;27;20425;-61
2022/06/30 05:38:24;;;;;;;0.57;0.53;;;;;;;23.01;100.00;95345.34;5133356;27;20795;-61
2022/06/30 05:40:53;;;;;;;0.87;0.87;;;;;;;23.52;100.00;95348.19;5133105;27;20506;-61
2022/06/30 05:43:21;;;;;;;4.20;1.33;;;;;;;23.23;100.00;95346.66;5133108;27;20506;-61
2022/06/30 05:45:51;;;;;;;0.40;0.30;;;;;;;23.27;100.00;95321.28;5133002;27;20514;-62
2022/06/30 05:48:20;;;;;;;0.80;0.60;;;;;;;23.16;100.00;95338.38;5133301;27;20465;-62
2022/06/30 05:50:49;;;;;;;2.10;0.40;;;;;;;23.43;100.00;95348.34;5133518;27;20473;-62
2022/06/30 05:53:19;;;;;;;0.63;0.53;;;;;;;23.38;100.00;95342.44;5133580;27;21009;-62
2022/06/30 05:55:48;;;;;;;0.50;0.40;;;;;;;23.48;100.00;95339.19;5134853;27;20418;-63
2022/06/30 05:58:19;;;;;;;0.93;0.93;;;;;;;23.21;100.00;95355.13;5133379;27;20510;-63
2022/06/30 06:00:47;;;;;;;0.60;0.50;;;;;;;23.57;100.00;95351.41;5133565;27;20435;-62
2022/06/30 06:03:16;;;;;;;0.60;0.57;;;;;;;23.55;100.00;95350.97;5133141;27;20904;-64
2022/06/30 06:05:45;;;;;;;0.90;0.90;;;;;;;23.39;100.00;95347.47;5132842;27;20434;-64
2022/06/30 06:08:13;;;;;;;0.60;0.53;;;;;;;23.98;100.00;95339.97;5133207;28;20488;-65
2022/06/30 06:10:43;;;;;;;3.83;1.53;;;;;;;23.62;100.00;95342.22;5133125;28;20434;-65
2022/06/30 06:13:13;;;;;;;0.67;0.60;;;;;;;23.33;100.00;95344.22;5132448;28;20561;-63
2022/06/30 06:15:41;;;;;;;7.03;1.10;;;;;;;24.02;100.00;95332.72;5132728;28;20525;-65
2022/06/30 06:18:10;;;;;;;2.23;1.80;;;;;;;24.18;100.00;95337.34;5133001;28;20491;-63
2022/06/30 06:20:39;;;;;;;1.20;1.17;;;;;;;24.49;100.00;95334.47;5135304;27;20423;-63
2022/06/30 06:23:07;;;;;;;0.70;0.63;;;;;;;24.84;100.00;95334.44;5136912;27;20460;-64
2022/06/30 06:25:35;;;;;;;0.97;0.57;;;;;;;25.27;100.00;95327.84;5137094;27;20509;-64
2022/06/30 06:30:51;;;;;;;0.87;0.70;;;;;;;25.34;100.00;95323.31;5137113;27;20434;-63
2022/06/30 06:33:19;;;;;;;1.40;1.10;;;;;;;25.53;100.00;95311.63;5136725;27;20545;-63
2022/06/30 06:35:48;;;;;;;0.90;0.90;;;;;;;25.59;100.00;95316.38;5136870;27;20415;-63
2022/06/30 06:38:16;;;;;;;0.90;0.70;;;;;;;25.25;100.00;95318.13;5137046;27;20485;-62
2022/06/30 06:40:44;;;;;;;0.60;0.60;;;;;;;25.39;100.00;95314.09;5136196;27;20466;-63
2022/06/30 06:43:14;;;;;;;0.70;0.57;;;;;;;25.68;100.00;95303.31;5136505;27;20522;-63
2022/06/30 06:45:42;;;;;;;0.93;0.40;;;;;;;26.21;97.71;95300.63;5136584;27;20485;-62
2022/06/30 06:48:11;;;;;;;0.60;0.60;;;;;;;26.38;97.24;95305.47;5136554;27;21100;-61
2022/06/30 06:50:39;;;;;;;0.40;0.40;;;;;;;26.47;100.00;95300.53;5136490;27;20849;-61
2022/06/30 06:53:07;;;;;;;0.70;0.70;;;;;;;26.52;95.28;95308.34;5136487;27;20466;-61
2022/06/30 06:55:36;;;;;;;0.50;0.43;;;;;;;26.24;100.00;95299.84;5137098;27;20493;-61
2022/06/30 06:58:05;;;;;;;1.23;0.70;;;;;;;26.04;100.00;95296.47;5136301;27;20466;-60
2022/06/30 07:00:35;;;;;;;2.70;1.20;;;;;;;26.70;94.98;95306.63;5136521;27;20441;-60
2022/06/30 07:03:03;;;;;;;0.60;0.50;;;;;;;27.22;93.63;95300.19;5136374;27;20483;-61
2022/06/30 07:05:32;;;;;;;0.47;0.47;;;;;;;27.66;90.83;95292.78;5136191;27;20458;-62
2022/06/30 07:08:01;;;;;;;0.80;0.77;;;;;;;27.43;87.58;95303.09;5136110;27;20473;-62
2022/06/30 07:10:30;;;;;;;0.50;0.40;;;;;;;27.62;85.25;95259.31;5136107;27;20513;-63
2022/06/30 07:12:58;;;;;;;0.80;0.77;;;;;;;27.66;83.82;95294.72;5135699;27;20967;-65
2022/06/30 07:15:26;;;;;;;0.80;0.80;;;;;;;27.78;87.41;95296.38;5135880;27;20510;-67
2022/06/30 07:17:56;;;;;;;1.27;0.70;;;;;;;27.49;86.14;95298.88;5135976;27;20426;-68
2022/06/30 07:20:25;;;;;;;1.30;1.30;;;;;;;27.87;87.01;95289.44;5136245;27;20491;-69
2022/06/30 07:22:54;;;;;;;0.40;0.30;;;;;;;28.54;85.02;95289.00;5135905;27;20433;-72
2022/06/30 07:25:42;;;;;;;2.30;0.70;;;;;;;28.40;82.86;95287.00;5135649;27;20430;-72
2022/06/30 07:28:11;;;;;;;0.70;0.60;;;;;;;28.47;80.35;95281.56;5135972;27;20506;-71
2022/06/30 07:30:59;;;;;;;0.50;0.50;;;;;;;29.09;83.40;95267.72;5135285;27;20438;-71
2022/06/30 07:33:29;;;;;;;0.80;0.77;;;;;;;28.92;79.78;95280.94;5136022;27;20501;-70
2022/06/30 07:35:59;;;;;;;0.50;0.40;;;;;;;29.24;76.92;95280.25;5135951;27;20528;-68
2022/06/30 07:38:27;;;;;;;0.57;0.50;;;;;;;28.82;81.34;95273.50;5135724;27;20418;-67
2022/06/30 07:40:56;;;;;;;0.60;0.60;;;;;;;29.00;80.04;95273.56;5135808;27;20848;-66
2022/06/30 07:43:24;;;;;;;0.70;0.63;;;;;;;29.37;77.69;95278.69;5135637;27;20478;-65
2022/06/30 07:45:53;;;;;;;1.03;1.03;;;;;;;29.10;81.20;95267.31;5135344;27;20477;-60
2022/06/30 07:48:21;;;;;;;4.27;1.10;;;;;;;28.98;78.34;95272.38;5135351;27;20471;-62
2022/06/30 07:50:51;;;;;;;1.77;1.03;;;;;;;29.97;76.59;95268.50;5135257;27;20510;-62
2022/06/30 07:53:19;;;;;;;0.60;0.60;;;;;;;29.46;79.53;95265.41;5135512;27;20427;-63
2022/06/30 07:55:48;;;;;;;0.80;0.80;;;;;;;29.20;77.61;95268.53;5135222;27;20494;-64
2022/06/30 07:58:16;;;;;;;2.97;0.80;;;;;;;29.22;81.26;95250.59;5135089;27;20852;-64
2022/06/30 08:00:44;;;;;;;0.70;0.70;;;;;;;29.77;80.48;95267.34;5135357;27;20415;-64
2022/06/30 08:03:13;;;;;;;0.47;0.43;;;;;;;30.54;73.48;95252.69;5135066;27;20467;-63
2022/06/30 08:05:41;;;;;;;0.73;0.73;;;;;;;30.40;67.57;95260.97;5135153;27;20900;-62
2022/06/30 08:08:11;;;;;;;0.47;0.40;;;;;;;30.66;72.96;95265.16;5134075;27;20828;-63
2022/06/30 08:10:39;;;;;;;0.57;0.50;;;;;;;30.36;71.58;95260.19;5135015;27;20759;-62
2022/06/30 08:13:08;;;;;;;0.50;0.40;;;;;;;31.00;69.59;95255.19;5135029;27;20919;-63
2022/06/30 08:15:36;;;;;;;0.50;0.50;;;;;;;30.90;64.44;95256.03;5135086;27;20481;-62
2022/06/30 08:18:05;;;;;;;0.50;0.50;;;;;;;31.51;66.28;95245.44;5134939;27;20513;-61
2022/06/30 08:20:34;;;;;;;0.97;0.63;;;;;;;31.67;59.01;95237.47;5134674;27;20993;-62
2022/06/30 08:23:03;;;;;;;0.63;0.37;;;;;;;31.43;60.66;95237.25;5134348;27;20466;-62
2022/06/30 08:25:32;;;;;;;0.50;0.40;;;;;;;31.59;66.26;95236.75;5134791;27;20462;-61
2022/06/30 08:28:03;;;;;;;2.50;0.90;;;;;;;30.33;72.84;95246.50;5134741;27;21070;-61
2022/06/30 08:30:31;;;;;;;1.07;0.97;;;;;;;30.84;66.77;95234.94;5134735;27;20470;-61
2022/06/30 08:33:00;;;;;;;0.80;0.80;;;;;;;31.48;65.12;95240.75;5134986;27;20411;-61
2022/06/30 08:35:28;;;;;;;0.60;0.60;;;;;;;31.39;61.33;95222.81;5134360;27;20527;-60
2022/06/30 08:38:17;;;;;;;0.60;0.60;;;;;;;32.69;55.92;95230.81;5134309;27;20451;-61
2022/06/30 08:43:35;;;;;;;1.30;0.70;;;;;;;32.10;60.50;95222.16;5133169;27;20472;-60
2022/06/30 08:46:04;;;;;;;1.20;1.07;;;;;;;32.43;55.89;95221.34;5134281;27;20411;-60
2022/06/30 08:48:33;;;;;;;0.57;0.33;;;;;;;32.12;55.84;95221.72;5134178;27;20467;-61
2022/06/30 08:51:05;;;;;;;0.60;0.50;;;;;;;32.54;57.09;95221.22;5134261;27;20533;-60
2022/06/30 08:53:40;;;;;;;0.40;0.30;;;;;;;32.57;48.96;95207.47;5134408;27;20441;-60
2022/06/30 08:56:10;;;;;;;0.50;0.47;;;;;;;33.12;55.99;95211.78;5134240;27;20502;-60
2022/06/30 08:58:40;;;;;;;0.60;0.60;;;;;;;33.40;54.37;95214.06;5134106;27;20967;-59
2022/06/30 09:01:09;;;;;;;0.60;0.43;;;;;;;33.34;53.51;95207.50;5134013;27;20435;-61
2022/06/30 09:03:39;;;;;;;0.50;0.50;;;;;;;33.54;49.12;95200.09;5134158;27;20432;-61
2022/06/30 09:06:07;;;;;;;0.60;0.60;;;;;;;32.98;46.66;95199.03;5133846;27;20540;-60
2022/06/30 09:08:36;;;;;;;0.70;0.70;;;;;;;33.44;50.66;95197.53;5133964;27;20860;-62
2022/06/30 09:11:05;;;;;;;0.73;0.50;;;;;;;33.76;49.81;95200.50;5133925;27;20427;-60
2022/06/30 09:13:43;;;;;;;0.47;0.30;;;;;;;33.63;49.61;95199.56;5135941;27;21044;-59
2022/06/30 09:16:12;;;;;;;0.60;0.50;;;;;;;33.04;47.98;95136.94;5133942;27;20507;-60
2022/06/30 09:18:41;;;;;;;0.57;0.53;;;;;;;33.07;49.58;95201.25;5133557;27;20436;-60
2022/06/30 09:21:16;;;;;;;0.50;0.40;;;;;;;33.72;46.32;95192.34;5132834;27;20468;-60
2022/06/30 09:23:45;;;;;;;0.43;0.37;;;;;;;33.42;51.68;95195.19;5133564;27;20783;-60
2022/06/30 09:26:19;;;;;;;3.30;0.70;;;;;;;33.76;45.05;95195.00;5133665;27;20463;-60
2022/06/30 09:28:51;;;;;;;0.40;0.30;;;;;;;33.97;46.24;95172.59;5133067;27;20435;-60
2022/06/30 09:31:42;;;;;;;0.70;0.60;;;;;;;34.16;43.64;95173.81;5132447;27;20526;-60
2022/06/30 09:34:16;;;;;;;0.40;0.40;;;;;;;34.66;45.40;95181.81;5132912;27;20442;-60
2022/06/30 09:36:46;;;;;;;0.53;0.50;;;;;;;34.60;43.10;95184.31;5132930;27;20480;-59
2022/06/30 09:39:16;;;;;;;0.40;0.30;;;;;;;34.38;43.83;95172.94;5132665;27;20519;-59
2022/06/30 09:41:48;;;;;;;2.10;0.60;;;;;;;34.54;42.79;95183.22;5132980;27;20471;-59
2022/06/30 09:44:22;;;;;;;0.97;0.97;;;;;;;34.10;42.83;95164.50;5130689;27;20908;-59
2022/06/30 09:46:59;;;;;;;0.40;0.37;;;;;;;34.59;41.74;95180.00;5131961;27;20443;-60
2022/06/30 09:49:34;;;;;;;0.40;0.40;;;;;;;35.01;42.15;95158.97;5132617;27;20424;-60
2022/06/30 09:52:05;;;;;;;0.40;0.40;;;;;;;34.49;35.98;95165.22;5133201;27;20566;-60
2022/06/30 09:54:35;;;;;;;0.83;0.83;;;;;;;34.54;40.37;95169.44;5132759;27;20502;-59
2022/06/30 09:57:05;;;;;;;0.60;0.50;;;;;;;34.50;36.53;95155.00;5132833;27;20510;-59
2022/06/30 09:59:36;;;;;;;0.50;0.40;;;;;;;34.93;37.98;95154.81;5133238;27;20464;-59
2022/06/30 10:02:07;;;;;;;0.40;0.33;;;;;;;34.99;33.93;95159.38;5132962;27;21038;-60
2022/06/30 10:04:54;;;;;;;0.40;0.40;;;;;;;35.41;37.49;95154.84;5132690;27;20431;-59
2022/06/30 10:07:23;;;;;;;0.60;0.50;;;;;;;35.39;36.58;95148.19;5131871;27;20552;-60
2022/06/30 10:09:52;;;;;;;0.43;0.40;;;;;;;35.34;39.60;95074.31;5132892;28;20192;-60
2022/06/30 10:12:21;;;;;;;0.40;0.30;;;;;;;35.82;38.10;95131.31;5132632;28;20227;-60
2022/06/30 10:14:54;;;;;;;0.50;0.50;;;;;;;34.93;40.12;95147.34;5132438;28;20277;-59
2022/06/30 10:17:25;;;;;;;1.40;0.40;;;;;;;35.17;38.29;95145.19;5132573;28;20653;-59
2022/06/30 10:19:54;;;;;;;0.40;0.33;;;;;;;35.42;39.68;95136.31;5132623;28;20184;-59
2022/06/30 10:22:24;;;;;;;0.43;0.37;;;;;;;36.00;40.19;95140.66;5132845;28;20246;-59
2022/06/30 10:24:54;;;;;;;0.97;0.50;;;;;;;36.09;34.49;95131.75;5132757;28;20275;-59
2022/06/30 10:27:24;;;;;;;0.47;0.47;;;;;;;36.63;36.64;95113.19;5132257;28;20241;-59
2022/06/30 10:29:57;;;;;;;0.30;0.30;;;;;;;36.18;36.97;95118.84;5132286;28;20241;-59
2022/06/30 10:32:38;;;;;;;1.67;0.60;;;;;;;36.16;35.83;95123.25;5132604;28;20632;-59
2022/06/30 10:35:15;;;;;;;0.50;0.50;;;;;;;36.12;36.97;95117.09;5132909;28;20212;-59
2022/06/30 10:37:50;;;;;;;0.67;0.40;;;;;;;35.86;36.50;95115.44;5132337;28;20560;-60
2022/06/30 10:40:34;;;;;;;0.70;0.70;;;;;;;35.56;36.99;95124.94;5132492;28;20225;-60
2022/06/30 10:43:03;;;;;;;0.40;0.40;;;;;;;36.19;38.21;95120.41;5131686;28;20210;-60
2022/06/30 10:45:56;;;;;;;0.30;0.30;;;;;;;36.45;36.25;95112.16;5132416;28;20235;-59
2022/06/30 10:48:27;;;;;;;0.60;0.40;;;;;;;36.17;36.46;95111.03;5132294;28;20712;-59
2022/06/30 10:50:56;;;;;;;0.40;0.30;;;;;;;36.66;36.08;95101.22;5132583;28;20188;-59
2022/06/30 10:53:54;;;;;;;3.47;0.77;;;;;;;36.49;36.95;95101.78;5132385;28;20220;-59
2022/06/30 10:56:25;;;;;;;0.40;0.40;;;;;;;35.99;35.52;95094.94;5132108;28;20620;-59
2022/06/30 10:59:08;;;;;;;1.13;0.40;;;;;;;36.42;35.17;95088.19;5132454;28;20192;-59
2022/06/30 11:01:39;;;;;;;0.37;0.30;;;;;;;36.48;35.37;95078.94;5132265;28;20291;-59
2022/06/30 11:04:11;;;;;;;0.40;0.40;;;;;;;36.78;34.98;95077.59;5132436;28;20262;-59
2022/06/30 11:07:08;;;;;;;2.50;0.47;;;;;;;36.26;35.71;95078.78;5133107;27;20189;-59
2022/06/30 11:10:21;;;;;;;0.40;0.40;;;;;;;36.86;34.51;95070.63;5122806;27;20283;-59
2022/06/30 11:12:55;;;;;;;0.40;0.30;;;;;;;36.53;35.03;95063.81;5133768;27;20704;-59
2022/06/30 11:15:44;;;;;;;0.60;0.47;;;;;;;36.56;33.78;95029.78;5136093;27;20267;-59
2022/06/30 11:18:14;;;;;;;0.40;0.30;;;;;;;36.91;34.89;95068.03;5135585;27;20196;-59
2022/06/30 11:20:45;;;;;;;0.57;0.52;;;;;;;35.96;34.38;95065.47;5135672;27;20271;-59
2022/06/30 11:23:14;;;;;;;0.50;0.40;;;;;;;36.51;33.73;95069.00;5136159;27;20184;-59
2022/06/30 11:28:31;;;;;;;0.38;0.32;;;;;;;37.01;34.07;95060.69;5135437;27;20216;-58
2022/06/30 11:30:59;;;;;;;0.40;0.30;;;;;;;36.61;32.35;95054.09;5135454;27;20220;-60
2022/06/30 11:33:29;;;;;;;0.60;0.60;;;;;;;36.10;32.71;95065.06;5135502;27;20191;-59
2022/06/30 11:36:04;;;;;;;0.40;0.35;;;;;;;36.24;32.75;95053.63;5135364;27;20212;-58
2022/06/30 11:38:34;;;;;;;0.40;0.30;;;;;;;36.61;32.24;95052.06;5135446;27;20194;-59
2022/06/30 11:43:53;;;;;;;0.40;0.30;;;;;;;37.13;30.79;95039.75;5135595;27;20616;-59
2022/06/30 11:46:22;;;;;;;0.35;0.32;;;;;;;36.11;30.29;95054.81;5135465;27;20223;-59
2022/06/30 11:48:52;;;;;;;0.40;0.30;;;;;;;35.81;30.92;95036.75;5135755;27;20288;-59
2022/06/30 11:51:21;;;;;;;1.13;1.10;;;;;;;36.20;31.28;95047.44;5135200;27;20650;-59
2022/06/30 11:53:49;;;;;;;0.40;0.30;;;;;;;35.00;32.43;95048.00;5135139;27;20565;-57
2022/06/30 11:56:24;;;;;;;0.40;0.30;;;;;;;34.87;34.92;95052.66;5134888;27;20546;-59
2022/06/30 11:59:06;;;;;;;0.50;0.50;;;;;;;34.86;34.62;95047.59;5134973;27;20189;-58
2022/06/30 12:01:34;;;;;;;0.43;0.43;;;;;;;34.55;36.10;95054.66;5134959;27;20185;-59
2022/06/30 12:04:19;;;;;;;0.60;0.40;;;;;;;34.51;35.62;95040.19;5135358;27;20180;-59